sensor_id;sensor_type;location;lat;lon;timestamp;P1;durP1;ratioP1;P2;durP2;ratioP2
21192;SDS011;10754;51.106;7.164;2023-02-01T00:01:53;12.57;;;5.40;;
21192;SDS011;10754;51.106;7.164;2023-02-01T00:04:19;9.37;;;5.47;;
21192;SDS011;10754;51.106;7.164;2023-02-01T00:06:44;8.23;;;4.70;;
21192;SDS011;10754;51.106;7.164;2023-02-01T00:09:10;9.63;;;5.13;;
21192;SDS011;10754;51.106;7.164;2023-02-01T00:11:35;9.30;;;4.90;;
21192;SDS011;10754;51.106;7.164;2023-02-01T00:14:01;8.60;;;4.93;;
21192;SDS011;10754;51.106;7.164;2023-02-01T00:16:27;10.93;;;5.30;;
21192;SDS011;10754;51.106;7.164;2023-02-01T00:18:58;9.57;;;5.00;;
21192;SDS011;10754;51.106;7.164;2023-02-01T00:21:29;10.83;;;5.07;;
21192;SDS011;10754;51.106;7.164;2023-02-01T00:23:56;10.03;;;5.07;;
21192;SDS011;10754;51.106;7.164;2023-02-01T00:26:30;10.03;;;4.67;;
21192;SDS011;10754;51.106;7.164;2023-02-01T00:29:00;11.47;;;5.20;;
21192;SDS011;10754;51.106;7.164;2023-02-01T00:31:26;7.90;;;4.37;;
21192;SDS011;10754;51.106;7.164;2023-02-01T00:33:52;6.73;;;4.40;;
21192;SDS011;10754;51.106;7.164;2023-02-01T00:36:17;8.70;;;4.27;;
21192;SDS011;10754;51.106;7.164;2023-02-01T00:38:43;8.50;;;4.77;;
21192;SDS011;10754;51.106;7.164;2023-02-01T00:41:10;9.33;;;4.27;;
21192;SDS011;10754;51.106;7.164;2023-02-01T00:43:37;8.47;;;4.07;;
21192;SDS011;10754;51.106;7.164;2023-02-01T00:46:03;11.60;;;4.83;;
21192;SDS011;10754;51.106;7.164;2023-02-01T00:48:29;9.43;;;4.87;;
21192;SDS011;10754;51.106;7.164;2023-02-01T00:50:58;9.00;;;4.57;;
21192;SDS011;10754;51.106;7.164;2023-02-01T00:53:25;9.43;;;4.33;;
21192;SDS011;10754;51.106;7.164;2023-02-01T00:55:50;9.50;;;3.97;;
21192;SDS011;10754;51.106;7.164;2023-02-01T00:58:16;9.20;;;4.50;;
21192;SDS011;10754;51.106;7.164;2023-02-01T01:00:41;11.67;;;5.03;;
21192;SDS011;10754;51.106;7.164;2023-02-01T01:03:07;11.33;;;4.60;;
21192;SDS011;10754;51.106;7.164;2023-02-01T01:05:49;7.17;;;3.73;;
21192;SDS011;10754;51.106;7.164;2023-02-01T01:08:15;12.27;;;4.27;;
21192;SDS011;10754;51.106;7.164;2023-02-01T01:10:41;10.27;;;4.20;;
21192;SDS011;10754;51.106;7.164;2023-02-01T01:13:08;9.20;;;4.30;;
21192;SDS011;10754;51.106;7.164;2023-02-01T01:15:40;10.30;;;3.73;;
21192;SDS011;10754;51.106;7.164;2023-02-01T01:18:05;11.30;;;4.10;;
21192;SDS011;10754;51.106;7.164;2023-02-01T01:20:33;12.50;;;3.90;;
21192;SDS011;10754;51.106;7.164;2023-02-01T01:23:01;11.20;;;4.40;;
21192;SDS011;10754;51.106;7.164;2023-02-01T01:25:27;11.43;;;4.73;;
21192;SDS011;10754;51.106;7.164;2023-02-01T01:27:52;9.40;;;3.20;;
21192;SDS011;10754;51.106;7.164;2023-02-01T01:30:18;10.67;;;4.27;;
21192;SDS011;10754;51.106;7.164;2023-02-01T01:32:43;9.60;;;3.97;;
21192;SDS011;10754;51.106;7.164;2023-02-01T01:35:09;8.57;;;3.33;;
21192;SDS011;10754;51.106;7.164;2023-02-01T01:37:35;8.60;;;3.33;;
21192;SDS011;10754;51.106;7.164;2023-02-01T01:40:02;9.13;;;3.50;;
21192;SDS011;10754;51.106;7.164;2023-02-01T01:42:28;9.10;;;3.23;;
21192;SDS011;10754;51.106;7.164;2023-02-01T01:44:58;8.83;;;3.20;;
21192;SDS011;10754;51.106;7.164;2023-02-01T01:47:29;7.33;;;2.37;;
21192;SDS011;10754;51.106;7.164;2023-02-01T01:50:01;7.67;;;3.13;;
21192;SDS011;10754;51.106;7.164;2023-02-01T01:52:28;7.50;;;2.60;;
21192;SDS011;10754;51.106;7.164;2023-02-01T01:54:54;9.90;;;3.27;;
21192;SDS011;10754;51.106;7.164;2023-02-01T01:57:23;7.30;;;2.90;;
21192;SDS011;10754;51.106;7.164;2023-02-01T01:59:59;8.53;;;3.63;;
21192;SDS011;10754;51.106;7.164;2023-02-01T02:02:32;7.60;;;3.10;;
21192;SDS011;10754;51.106;7.164;2023-02-01T02:04:58;7.53;;;3.33;;
21192;SDS011;10754;51.106;7.164;2023-02-01T02:07:25;6.33;;;2.73;;
21192;SDS011;10754;51.106;7.164;2023-02-01T02:09:54;7.63;;;2.63;;
21192;SDS011;10754;51.106;7.164;2023-02-01T02:12:20;9.23;;;3.53;;
21192;SDS011;10754;51.106;7.164;2023-02-01T02:14:46;7.50;;;2.43;;
21192;SDS011;10754;51.106;7.164;2023-02-01T02:28:04;7.07;;;2.47;;
21192;SDS011;10754;51.106;7.164;2023-02-01T02:31:13;7.07;;;2.00;;
21192;SDS011;10754;51.106;7.164;2023-02-01T02:34:10;9.53;;;3.07;;
21192;SDS011;10754;51.106;7.164;2023-02-01T02:42:34;9.87;;;3.00;;
21192;SDS011;10754;51.106;7.164;2023-02-01T02:45:42;10.80;;;3.30;;
21192;SDS011;10754;51.106;7.164;2023-02-01T02:48:39;5.83;;;2.40;;
21192;SDS011;10754;51.106;7.164;2023-02-01T02:51:15;8.93;;;3.00;;
21192;SDS011;10754;51.106;7.164;2023-02-01T02:54:25;7.10;;;2.53;;
21192;SDS011;10754;51.106;7.164;2023-02-01T02:57:11;6.70;;;2.23;;
21192;SDS011;10754;51.106;7.164;2023-02-01T03:00:08;8.40;;;3.43;;
21192;SDS011;10754;51.106;7.164;2023-02-01T03:02:54;8.00;;;2.60;;
21192;SDS011;10754;51.106;7.164;2023-02-01T03:05:43;6.77;;;2.07;;
21192;SDS011;10754;51.106;7.164;2023-02-01T03:08:18;10.87;;;3.40;;
21192;SDS011;10754;51.106;7.164;2023-02-01T03:10:50;9.13;;;2.90;;
21192;SDS011;10754;51.106;7.164;2023-02-01T03:13:38;9.97;;;3.00;;
21192;SDS011;10754;51.106;7.164;2023-02-01T03:16:31;9.90;;;3.00;;
21192;SDS011;10754;51.106;7.164;2023-02-01T03:19:27;6.23;;;2.80;;
21192;SDS011;10754;51.106;7.164;2023-02-01T03:24:33;6.97;;;3.07;;
21192;SDS011;10754;51.106;7.164;2023-02-01T03:29:44;9.80;;;3.40;;
21192;SDS011;10754;51.106;7.164;2023-02-01T03:32:19;10.30;;;2.97;;
21192;SDS011;10754;51.106;7.164;2023-02-01T03:34:46;10.60;;;3.00;;
21192;SDS011;10754;51.106;7.164;2023-02-01T03:37:12;8.33;;;3.30;;
21192;SDS011;10754;51.106;7.164;2023-02-01T03:39:58;8.27;;;3.10;;
21192;SDS011;10754;51.106;7.164;2023-02-01T03:42:34;10.07;;;3.67;;
21192;SDS011;10754;51.106;7.164;2023-02-01T03:45:06;7.90;;;3.23;;
21192;SDS011;10754;51.106;7.164;2023-02-01T03:47:40;8.57;;;3.67;;
21192;SDS011;10754;51.106;7.164;2023-02-01T03:50:10;9.93;;;3.57;;
21192;SDS011;10754;51.106;7.164;2023-02-01T03:52:45;12.67;;;3.80;;
21192;SDS011;10754;51.106;7.164;2023-02-01T03:55:18;11.87;;;3.43;;
21192;SDS011;10754;51.106;7.164;2023-02-01T03:57:51;9.43;;;3.63;;
21192;SDS011;10754;51.106;7.164;2023-02-01T04:00:23;9.23;;;3.40;;
21192;SDS011;10754;51.106;7.164;2023-02-01T04:02:51;9.40;;;4.13;;
21192;SDS011;10754;51.106;7.164;2023-02-01T04:05:17;8.70;;;3.60;;
21192;SDS011;10754;51.106;7.164;2023-02-01T04:07:42;7.70;;;3.83;;
21192;SDS011;10754;51.106;7.164;2023-02-01T04:10:08;7.77;;;3.70;;
21192;SDS011;10754;51.106;7.164;2023-02-01T04:12:34;10.50;;;3.53;;
21192;SDS011;10754;51.106;7.164;2023-02-01T04:15:00;10.23;;;3.43;;
21192;SDS011;10754;51.106;7.164;2023-02-01T04:17:25;9.13;;;3.47;;
21192;SDS011;10754;51.106;7.164;2023-02-01T04:19:51;11.30;;;4.23;;
21192;SDS011;10754;51.106;7.164;2023-02-01T04:22:16;8.00;;;4.03;;
21192;SDS011;10754;51.106;7.164;2023-02-01T04:24:42;10.27;;;3.73;;
21192;SDS011;10754;51.106;7.164;2023-02-01T04:27:07;8.27;;;3.13;;
21192;SDS011;10754;51.106;7.164;2023-02-01T04:29:33;9.33;;;3.90;;
21192;SDS011;10754;51.106;7.164;2023-02-01T04:31:59;9.63;;;2.87;;
21192;SDS011;10754;51.106;7.164;2023-02-01T04:34:24;8.13;;;3.40;;
21192;SDS011;10754;51.106;7.164;2023-02-01T04:36:50;12.70;;;3.87;;
21192;SDS011;10754;51.106;7.164;2023-02-01T04:39:16;11.37;;;3.27;;
21192;SDS011;10754;51.106;7.164;2023-02-01T04:41:42;7.27;;;2.70;;
21192;SDS011;10754;51.106;7.164;2023-02-01T04:44:10;9.93;;;3.03;;
21192;SDS011;10754;51.106;7.164;2023-02-01T04:46:39;9.87;;;3.30;;
21192;SDS011;10754;51.106;7.164;2023-02-01T04:49:05;8.93;;;2.77;;
21192;SDS011;10754;51.106;7.164;2023-02-01T04:51:30;8.73;;;2.70;;
21192;SDS011;10754;51.106;7.164;2023-02-01T04:53:56;8.83;;;3.13;;
21192;SDS011;10754;51.106;7.164;2023-02-01T04:56:21;8.37;;;3.17;;
21192;SDS011;10754;51.106;7.164;2023-02-01T04:58:47;6.90;;;3.63;;
21192;SDS011;10754;51.106;7.164;2023-02-01T05:01:12;9.50;;;3.17;;
21192;SDS011;10754;51.106;7.164;2023-02-01T05:03:38;9.80;;;3.73;;
21192;SDS011;10754;51.106;7.164;2023-02-01T05:06:03;9.47;;;3.10;;
21192;SDS011;10754;51.106;7.164;2023-02-01T05:08:30;15.30;;;4.63;;
21192;SDS011;10754;51.106;7.164;2023-02-01T05:10:56;13.73;;;3.10;;
21192;SDS011;10754;51.106;7.164;2023-02-01T05:13:21;7.47;;;3.00;;
21192;SDS011;10754;51.106;7.164;2023-02-01T05:16:05;9.57;;;3.63;;
21192;SDS011;10754;51.106;7.164;2023-02-01T05:18:31;9.27;;;3.40;;
21192;SDS011;10754;51.106;7.164;2023-02-01T05:20:57;7.63;;;3.57;;
21192;SDS011;10754;51.106;7.164;2023-02-01T05:23:22;8.60;;;3.10;;
21192;SDS011;10754;51.106;7.164;2023-02-01T05:25:48;12.47;;;3.33;;
21192;SDS011;10754;51.106;7.164;2023-02-01T05:28:13;9.20;;;3.23;;
21192;SDS011;10754;51.106;7.164;2023-02-01T05:30:39;10.17;;;3.10;;
21192;SDS011;10754;51.106;7.164;2023-02-01T05:33:04;10.43;;;3.90;;
21192;SDS011;10754;51.106;7.164;2023-02-01T05:35:30;11.00;;;3.50;;
21192;SDS011;10754;51.106;7.164;2023-02-01T05:37:55;9.10;;;3.77;;
21192;SDS011;10754;51.106;7.164;2023-02-01T05:40:21;9.27;;;2.97;;
21192;SDS011;10754;51.106;7.164;2023-02-01T05:42:47;9.53;;;3.37;;
21192;SDS011;10754;51.106;7.164;2023-02-01T05:45:13;7.13;;;2.83;;
21192;SDS011;10754;51.106;7.164;2023-02-01T05:47:38;10.00;;;3.53;;
21192;SDS011;10754;51.106;7.164;2023-02-01T05:50:04;9.17;;;3.50;;
21192;SDS011;10754;51.106;7.164;2023-02-01T05:52:30;10.90;;;3.20;;
21192;SDS011;10754;51.106;7.164;2023-02-01T05:54:57;12.57;;;4.37;;
21192;SDS011;10754;51.106;7.164;2023-02-01T05:57:22;9.37;;;4.13;;
21192;SDS011;10754;51.106;7.164;2023-02-01T05:59:48;8.63;;;2.87;;
21192;SDS011;10754;51.106;7.164;2023-02-01T06:02:14;11.00;;;3.33;;
21192;SDS011;10754;51.106;7.164;2023-02-01T06:04:40;11.03;;;2.73;;
21192;SDS011;10754;51.106;7.164;2023-02-01T06:07:06;11.00;;;3.17;;
21192;SDS011;10754;51.106;7.164;2023-02-01T06:09:34;8.97;;;3.17;;
21192;SDS011;10754;51.106;7.164;2023-02-01T06:12:00;7.87;;;2.83;;
21192;SDS011;10754;51.106;7.164;2023-02-01T06:14:26;9.40;;;2.90;;
21192;SDS011;10754;51.106;7.164;2023-02-01T06:16:52;9.37;;;3.53;;
21192;SDS011;10754;51.106;7.164;2023-02-01T06:19:18;10.00;;;3.57;;
21192;SDS011;10754;51.106;7.164;2023-02-01T06:21:44;10.17;;;3.27;;
21192;SDS011;10754;51.106;7.164;2023-02-01T06:24:09;9.73;;;2.60;;
21192;SDS011;10754;51.106;7.164;2023-02-01T06:26:35;9.53;;;3.13;;
21192;SDS011;10754;51.106;7.164;2023-02-01T06:29:01;8.57;;;2.87;;
21192;SDS011;10754;51.106;7.164;2023-02-01T06:31:26;9.07;;;3.27;;
21192;SDS011;10754;51.106;7.164;2023-02-01T06:33:52;11.43;;;3.93;;
21192;SDS011;10754;51.106;7.164;2023-02-01T06:36:18;12.70;;;3.33;;
21192;SDS011;10754;51.106;7.164;2023-02-01T06:38:46;10.63;;;3.10;;
21192;SDS011;10754;51.106;7.164;2023-02-01T06:41:12;9.90;;;3.30;;
21192;SDS011;10754;51.106;7.164;2023-02-01T06:43:38;9.60;;;3.23;;
21192;SDS011;10754;51.106;7.164;2023-02-01T06:46:04;10.50;;;3.10;;
21192;SDS011;10754;51.106;7.164;2023-02-01T06:48:32;11.67;;;3.57;;
21192;SDS011;10754;51.106;7.164;2023-02-01T06:50:58;9.97;;;3.30;;
21192;SDS011;10754;51.106;7.164;2023-02-01T06:53:23;9.67;;;3.03;;
21192;SDS011;10754;51.106;7.164;2023-02-01T06:55:56;10.77;;;3.03;;
21192;SDS011;10754;51.106;7.164;2023-02-01T06:58:23;11.27;;;3.10;;
21192;SDS011;10754;51.106;7.164;2023-02-01T07:00:49;9.47;;;3.00;;
21192;SDS011;10754;51.106;7.164;2023-02-01T07:03:15;12.47;;;3.43;;
21192;SDS011;10754;51.106;7.164;2023-02-01T07:05:41;11.70;;;3.57;;
21192;SDS011;10754;51.106;7.164;2023-02-01T07:08:07;10.83;;;3.83;;
21192;SDS011;10754;51.106;7.164;2023-02-01T07:10:33;12.20;;;3.73;;
21192;SDS011;10754;51.106;7.164;2023-02-01T07:13:00;6.00;;;2.97;;
21192;SDS011;10754;51.106;7.164;2023-02-01T07:15:26;10.77;;;3.20;;
21192;SDS011;10754;51.106;7.164;2023-02-01T07:17:53;10.07;;;3.30;;
21192;SDS011;10754;51.106;7.164;2023-02-01T07:20:20;14.47;;;3.97;;
21192;SDS011;10754;51.106;7.164;2023-02-01T07:22:45;7.30;;;2.87;;
21192;SDS011;10754;51.106;7.164;2023-02-01T07:25:11;12.27;;;3.20;;
21192;SDS011;10754;51.106;7.164;2023-02-01T07:27:36;12.03;;;3.83;;
21192;SDS011;10754;51.106;7.164;2023-02-01T07:30:05;11.30;;;3.23;;
21192;SDS011;10754;51.106;7.164;2023-02-01T07:32:32;10.63;;;3.20;;
21192;SDS011;10754;51.106;7.164;2023-02-01T07:34:57;10.77;;;3.73;;
21192;SDS011;10754;51.106;7.164;2023-02-01T07:37:23;8.63;;;3.53;;
21192;SDS011;10754;51.106;7.164;2023-02-01T07:39:50;8.87;;;2.83;;
21192;SDS011;10754;51.106;7.164;2023-02-01T07:42:16;10.73;;;3.83;;
21192;SDS011;10754;51.106;7.164;2023-02-01T07:44:42;10.30;;;3.53;;
21192;SDS011;10754;51.106;7.164;2023-02-01T07:47:07;7.90;;;3.27;;
21192;SDS011;10754;51.106;7.164;2023-02-01T07:49:33;12.13;;;3.40;;
21192;SDS011;10754;51.106;7.164;2023-02-01T07:51:58;12.00;;;3.87;;
21192;SDS011;10754;51.106;7.164;2023-02-01T07:54:24;10.60;;;3.70;;
21192;SDS011;10754;51.106;7.164;2023-02-01T07:56:49;9.60;;;4.00;;
21192;SDS011;10754;51.106;7.164;2023-02-01T07:59:15;11.80;;;4.20;;
21192;SDS011;10754;51.106;7.164;2023-02-01T08:01:41;10.50;;;3.17;;
21192;SDS011;10754;51.106;7.164;2023-02-01T08:04:07;12.77;;;3.60;;
21192;SDS011;10754;51.106;7.164;2023-02-01T08:06:35;11.63;;;3.67;;
21192;SDS011;10754;51.106;7.164;2023-02-01T08:09:01;12.23;;;3.20;;
21192;SDS011;10754;51.106;7.164;2023-02-01T08:11:27;9.13;;;2.90;;
21192;SDS011;10754;51.106;7.164;2023-02-01T08:13:53;7.83;;;3.30;;
21192;SDS011;10754;51.106;7.164;2023-02-01T08:16:19;10.07;;;3.67;;
21192;SDS011;10754;51.106;7.164;2023-02-01T08:18:45;8.83;;;3.20;;
21192;SDS011;10754;51.106;7.164;2023-02-01T08:21:12;13.53;;;3.60;;
21192;SDS011;10754;51.106;7.164;2023-02-01T08:23:40;10.67;;;3.63;;
21192;SDS011;10754;51.106;7.164;2023-02-01T08:28:33;10.37;;;3.20;;
21192;SDS011;10754;51.106;7.164;2023-02-01T08:31:03;8.40;;;3.10;;
21192;SDS011;10754;51.106;7.164;2023-02-01T08:33:33;10.30;;;3.17;;
21192;SDS011;10754;51.106;7.164;2023-02-01T08:36:00;19.73;;;3.83;;
21192;SDS011;10754;51.106;7.164;2023-02-01T08:38:27;12.30;;;3.50;;
21192;SDS011;10754;51.106;7.164;2023-02-01T08:40:53;11.37;;;3.23;;
21192;SDS011;10754;51.106;7.164;2023-02-01T08:43:18;10.40;;;3.60;;
21192;SDS011;10754;51.106;7.164;2023-02-01T08:45:44;9.47;;;3.77;;
21192;SDS011;10754;51.106;7.164;2023-02-01T08:48:09;8.87;;;3.30;;
21192;SDS011;10754;51.106;7.164;2023-02-01T08:50:35;7.40;;;2.77;;
21192;SDS011;10754;51.106;7.164;2023-02-01T08:53:00;8.73;;;2.80;;
21192;SDS011;10754;51.106;7.164;2023-02-01T08:55:26;9.67;;;3.67;;
21192;SDS011;10754;51.106;7.164;2023-02-01T08:57:52;8.37;;;3.57;;
21192;SDS011;10754;51.106;7.164;2023-02-01T09:00:18;11.33;;;3.73;;
21192;SDS011;10754;51.106;7.164;2023-02-01T09:02:43;9.93;;;3.70;;
21192;SDS011;10754;51.106;7.164;2023-02-01T09:05:09;13.77;;;3.47;;
21192;SDS011;10754;51.106;7.164;2023-02-01T09:07:36;10.80;;;3.47;;
21192;SDS011;10754;51.106;7.164;2023-02-01T09:10:02;14.00;;;3.83;;
21192;SDS011;10754;51.106;7.164;2023-02-01T09:12:30;12.90;;;3.20;;
21192;SDS011;10754;51.106;7.164;2023-02-01T09:14:58;11.03;;;3.50;;
21192;SDS011;10754;51.106;7.164;2023-02-01T09:17:25;10.60;;;3.33;;
21192;SDS011;10754;51.106;7.164;2023-02-01T09:19:51;9.97;;;3.50;;
21192;SDS011;10754;51.106;7.164;2023-02-01T09:22:17;10.90;;;4.00;;
21192;SDS011;10754;51.106;7.164;2023-02-01T09:24:42;10.70;;;4.10;;
21192;SDS011;10754;51.106;7.164;2023-02-01T09:27:08;9.40;;;3.20;;
21192;SDS011;10754;51.106;7.164;2023-02-01T09:29:33;11.93;;;3.77;;
21192;SDS011;10754;51.106;7.164;2023-02-01T09:31:59;8.57;;;3.60;;
21192;SDS011;10754;51.106;7.164;2023-02-01T09:34:24;7.90;;;2.77;;
21192;SDS011;10754;51.106;7.164;2023-02-01T09:36:50;11.30;;;3.30;;
21192;SDS011;10754;51.106;7.164;2023-02-01T09:39:15;7.90;;;2.80;;
21192;SDS011;10754;51.106;7.164;2023-02-01T09:44:30;9.90;;;3.53;;
21192;SDS011;10754;51.106;7.164;2023-02-01T09:47:17;11.40;;;3.97;;
21192;SDS011;10754;51.106;7.164;2023-02-01T09:49:51;8.20;;;2.57;;
21192;SDS011;10754;51.106;7.164;2023-02-01T09:53:11;11.40;;;3.50;;
21192;SDS011;10754;51.106;7.164;2023-02-01T09:55:39;12.63;;;3.67;;
21192;SDS011;10754;51.106;7.164;2023-02-01T09:58:16;9.23;;;3.23;;
21192;SDS011;10754;51.106;7.164;2023-02-01T10:00:55;12.63;;;3.90;;
21192;SDS011;10754;51.106;7.164;2023-02-01T10:03:26;11.20;;;2.97;;
21192;SDS011;10754;51.106;7.164;2023-02-01T10:11:53;10.13;;;3.33;;
21192;SDS011;10754;51.106;7.164;2023-02-01T10:17:25;10.77;;;3.43;;
21192;SDS011;10754;51.106;7.164;2023-02-01T10:22:43;11.23;;;3.70;;
21192;SDS011;10754;51.106;7.164;2023-02-01T10:25:27;14.90;;;2.90;;
21192;SDS011;10754;51.106;7.164;2023-02-01T10:28:02;9.53;;;3.13;;
21192;SDS011;10754;51.106;7.164;2023-02-01T10:30:35;9.03;;;2.70;;
21192;SDS011;10754;51.106;7.164;2023-02-01T10:35:44;8.57;;;3.20;;
21192;SDS011;10754;51.106;7.164;2023-02-01T10:38:20;7.43;;;3.00;;
21192;SDS011;10754;51.106;7.164;2023-02-01T10:40:53;11.17;;;3.97;;
21192;SDS011;10754;51.106;7.164;2023-02-01T10:43:22;9.47;;;3.67;;
21192;SDS011;10754;51.106;7.164;2023-02-01T10:45:47;10.17;;;3.37;;
21192;SDS011;10754;51.106;7.164;2023-02-01T10:48:13;14.80;;;4.00;;
21192;SDS011;10754;51.106;7.164;2023-02-01T10:50:41;9.20;;;3.20;;
21192;SDS011;10754;51.106;7.164;2023-02-01T10:53:17;9.97;;;3.33;;
21192;SDS011;10754;51.106;7.164;2023-02-01T10:55:51;8.00;;;3.60;;
21192;SDS011;10754;51.106;7.164;2023-02-01T10:58:28;8.10;;;3.47;;
21192;SDS011;10754;51.106;7.164;2023-02-01T11:01:07;8.60;;;3.37;;
21192;SDS011;10754;51.106;7.164;2023-02-01T11:06:37;10.20;;;3.47;;
21192;SDS011;10754;51.106;7.164;2023-02-01T11:11:33;9.30;;;3.63;;
21192;SDS011;10754;51.106;7.164;2023-02-01T11:14:18;7.10;;;2.77;;
21192;SDS011;10754;51.106;7.164;2023-02-01T11:19:23;9.57;;;3.17;;
21192;SDS011;10754;51.106;7.164;2023-02-01T11:21:49;12.20;;;3.23;;
21192;SDS011;10754;51.106;7.164;2023-02-01T11:24:29;9.73;;;3.43;;
21192;SDS011;10754;51.106;7.164;2023-02-01T11:26:59;9.03;;;3.40;;
21192;SDS011;10754;51.106;7.164;2023-02-01T11:29:28;11.37;;;3.57;;
21192;SDS011;10754;51.106;7.164;2023-02-01T11:32:01;6.63;;;2.77;;
21192;SDS011;10754;51.106;7.164;2023-02-01T11:37:03;9.37;;;3.87;;
21192;SDS011;10754;51.106;7.164;2023-02-01T11:39:30;10.90;;;3.33;;
21192;SDS011;10754;51.106;7.164;2023-02-01T11:42:05;8.83;;;2.80;;
21192;SDS011;10754;51.106;7.164;2023-02-01T11:49:43;8.97;;;3.27;;
21192;SDS011;10754;51.106;7.164;2023-02-01T11:55:03;7.33;;;2.77;;
21192;SDS011;10754;51.106;7.164;2023-02-01T12:00:27;8.70;;;3.13;;
21192;SDS011;10754;51.106;7.164;2023-02-01T12:03:19;12.87;;;3.30;;
21192;SDS011;10754;51.106;7.164;2023-02-01T12:06:04;10.10;;;3.03;;
21192;SDS011;10754;51.106;7.164;2023-02-01T12:08:39;9.13;;;2.97;;
21192;SDS011;10754;51.106;7.164;2023-02-01T12:14:08;8.10;;;3.30;;
21192;SDS011;10754;51.106;7.164;2023-02-01T12:19:23;7.43;;;3.17;;
21192;SDS011;10754;51.106;7.164;2023-02-01T12:33:41;7.93;;;3.03;;
21192;SDS011;10754;51.106;7.164;2023-02-01T12:39:40;13.20;;;4.20;;
21192;SDS011;10754;51.106;7.164;2023-02-01T12:42:24;10.37;;;3.10;;
21192;SDS011;10754;51.106;7.164;2023-02-01T12:50:20;8.23;;;3.20;;
21192;SDS011;10754;51.106;7.164;2023-02-01T12:53:04;10.77;;;3.07;;
21192;SDS011;10754;51.106;7.164;2023-02-01T12:55:44;10.40;;;3.73;;
21192;SDS011;10754;51.106;7.164;2023-02-01T12:58:24;7.23;;;2.60;;
21192;SDS011;10754;51.106;7.164;2023-02-01T13:00:59;8.47;;;2.90;;
21192;SDS011;10754;51.106;7.164;2023-02-01T13:06:35;10.33;;;3.53;;
21192;SDS011;10754;51.106;7.164;2023-02-01T13:09:07;7.53;;;2.67;;
21192;SDS011;10754;51.106;7.164;2023-02-01T13:11:44;9.00;;;2.90;;
21192;SDS011;10754;51.106;7.164;2023-02-01T13:19:41;10.50;;;2.97;;
21192;SDS011;10754;51.106;7.164;2023-02-01T13:22:17;12.07;;;3.20;;
21192;SDS011;10754;51.106;7.164;2023-02-01T13:24:46;9.33;;;3.03;;
21192;SDS011;10754;51.106;7.164;2023-02-01T13:27:16;9.90;;;2.80;;
21192;SDS011;10754;51.106;7.164;2023-02-01T13:29:51;8.87;;;2.33;;
21192;SDS011;10754;51.106;7.164;2023-02-01T13:32:25;8.00;;;2.80;;
21192;SDS011;10754;51.106;7.164;2023-02-01T13:37:59;8.77;;;3.00;;
21192;SDS011;10754;51.106;7.164;2023-02-01T13:40:41;8.07;;;2.73;;
21192;SDS011;10754;51.106;7.164;2023-02-01T13:43:21;8.03;;;2.33;;
21192;SDS011;10754;51.106;7.164;2023-02-01T13:45:52;8.93;;;2.80;;
21192;SDS011;10754;51.106;7.164;2023-02-01T13:48:21;11.10;;;2.97;;
21192;SDS011;10754;51.106;7.164;2023-02-01T13:51:03;7.87;;;3.20;;
21192;SDS011;10754;51.106;7.164;2023-02-01T13:53:33;7.10;;;2.53;;
21192;SDS011;10754;51.106;7.164;2023-02-01T13:56:18;7.87;;;3.07;;
21192;SDS011;10754;51.106;7.164;2023-02-01T13:58:45;7.80;;;2.83;;
21192;SDS011;10754;51.106;7.164;2023-02-01T14:03:48;8.33;;;2.20;;
21192;SDS011;10754;51.106;7.164;2023-02-01T14:14:13;8.63;;;2.57;;
21192;SDS011;10754;51.106;7.164;2023-02-01T14:19:27;7.90;;;2.43;;
21192;SDS011;10754;51.106;7.164;2023-02-01T14:22:00;8.27;;;2.80;;
21192;SDS011;10754;51.106;7.164;2023-02-01T14:24:55;12.37;;;3.47;;
21192;SDS011;10754;51.106;7.164;2023-02-01T14:27:23;10.43;;;2.73;;
21192;SDS011;10754;51.106;7.164;2023-02-01T14:30:00;6.93;;;2.63;;
21192;SDS011;10754;51.106;7.164;2023-02-01T14:32:36;6.67;;;2.33;;
21192;SDS011;10754;51.106;7.164;2023-02-01T14:35:05;9.27;;;2.93;;
21192;SDS011;10754;51.106;7.164;2023-02-01T14:37:36;10.07;;;3.00;;
21192;SDS011;10754;51.106;7.164;2023-02-01T14:40:04;9.30;;;2.93;;
21192;SDS011;10754;51.106;7.164;2023-02-01T14:47:47;9.90;;;2.63;;
21192;SDS011;10754;51.106;7.164;2023-02-01T14:50:17;6.30;;;2.33;;
21192;SDS011;10754;51.106;7.164;2023-02-01T14:58:01;15.13;;;3.70;;
21192;SDS011;10754;51.106;7.164;2023-02-01T15:00:30;6.73;;;2.40;;
21192;SDS011;10754;51.106;7.164;2023-02-01T15:05:41;10.27;;;2.80;;
21192;SDS011;10754;51.106;7.164;2023-02-01T15:08:15;7.07;;;2.33;;
21192;SDS011;10754;51.106;7.164;2023-02-01T15:10:44;6.97;;;2.50;;
21192;SDS011;10754;51.106;7.164;2023-02-01T15:13:19;7.87;;;2.27;;
21192;SDS011;10754;51.106;7.164;2023-02-01T15:15:59;9.60;;;2.27;;
21192;SDS011;10754;51.106;7.164;2023-02-01T15:18:35;5.73;;;2.50;;
21192;SDS011;10754;51.106;7.164;2023-02-01T15:21:02;9.67;;;3.30;;
21192;SDS011;10754;51.106;7.164;2023-02-01T15:23:30;8.17;;;2.83;;
21192;SDS011;10754;51.106;7.164;2023-02-01T15:25:55;9.10;;;2.63;;
21192;SDS011;10754;51.106;7.164;2023-02-01T15:28:21;8.53;;;2.00;;
21192;SDS011;10754;51.106;7.164;2023-02-01T15:30:58;8.57;;;2.97;;
21192;SDS011;10754;51.106;7.164;2023-02-01T15:33:25;7.77;;;2.40;;
21192;SDS011;10754;51.106;7.164;2023-02-01T15:35:55;6.50;;;2.40;;
21192;SDS011;10754;51.106;7.164;2023-02-01T15:38:34;10.60;;;2.60;;
21192;SDS011;10754;51.106;7.164;2023-02-01T15:41:06;8.73;;;2.40;;
21192;SDS011;10754;51.106;7.164;2023-02-01T15:43:34;10.27;;;3.43;;
21192;SDS011;10754;51.106;7.164;2023-02-01T15:46:13;6.67;;;2.57;;
21192;SDS011;10754;51.106;7.164;2023-02-01T15:48:45;6.83;;;2.50;;
21192;SDS011;10754;51.106;7.164;2023-02-01T15:51:15;6.00;;;2.00;;
21192;SDS011;10754;51.106;7.164;2023-02-01T15:53:43;7.87;;;2.70;;
21192;SDS011;10754;51.106;7.164;2023-02-01T15:56:11;6.03;;;2.10;;
21192;SDS011;10754;51.106;7.164;2023-02-01T15:58:37;6.37;;;2.17;;
21192;SDS011;10754;51.106;7.164;2023-02-01T16:01:11;6.40;;;1.93;;
21192;SDS011;10754;51.106;7.164;2023-02-01T16:03:44;6.57;;;1.93;;
21192;SDS011;10754;51.106;7.164;2023-02-01T16:06:26;6.17;;;2.43;;
21192;SDS011;10754;51.106;7.164;2023-02-01T16:11:24;5.63;;;2.40;;
21192;SDS011;10754;51.106;7.164;2023-02-01T16:13:53;7.67;;;2.57;;
21192;SDS011;10754;51.106;7.164;2023-02-01T16:16:18;6.87;;;2.53;;
21192;SDS011;10754;51.106;7.164;2023-02-01T16:18:44;8.07;;;2.80;;
21192;SDS011;10754;51.106;7.164;2023-02-01T16:21:09;5.17;;;2.20;;
21192;SDS011;10754;51.106;7.164;2023-02-01T16:23:36;5.40;;;2.30;;
21192;SDS011;10754;51.106;7.164;2023-02-01T16:26:02;6.60;;;1.90;;
21192;SDS011;10754;51.106;7.164;2023-02-01T16:28:29;5.63;;;2.60;;
21192;SDS011;10754;51.106;7.164;2023-02-01T16:30:54;5.23;;;2.00;;
21192;SDS011;10754;51.106;7.164;2023-02-01T16:33:20;7.60;;;2.50;;
21192;SDS011;10754;51.106;7.164;2023-02-01T16:35:47;7.93;;;2.77;;
21192;SDS011;10754;51.106;7.164;2023-02-01T16:38:14;8.00;;;1.90;;
21192;SDS011;10754;51.106;7.164;2023-02-01T16:40:44;8.27;;;2.20;;
21192;SDS011;10754;51.106;7.164;2023-02-01T16:43:12;6.60;;;2.23;;
21192;SDS011;10754;51.106;7.164;2023-02-01T16:45:43;8.93;;;3.00;;
21192;SDS011;10754;51.106;7.164;2023-02-01T16:51:02;8.77;;;2.70;;
21192;SDS011;10754;51.106;7.164;2023-02-01T16:53:32;7.13;;;2.20;;
21192;SDS011;10754;51.106;7.164;2023-02-01T16:55:58;6.53;;;2.40;;
21192;SDS011;10754;51.106;7.164;2023-02-01T16:58:24;9.57;;;3.23;;
21192;SDS011;10754;51.106;7.164;2023-02-01T17:00:51;8.10;;;2.50;;
21192;SDS011;10754;51.106;7.164;2023-02-01T17:03:18;10.97;;;2.63;;
21192;SDS011;10754;51.106;7.164;2023-02-01T17:05:45;6.77;;;2.43;;
21192;SDS011;10754;51.106;7.164;2023-02-01T17:08:18;6.93;;;2.17;;
21192;SDS011;10754;51.106;7.164;2023-02-01T17:10:50;7.97;;;2.33;;
21192;SDS011;10754;51.106;7.164;2023-02-01T17:13:16;7.93;;;2.80;;